Time;durP1;ratioP1;P1;durP2;ratioP2;P2;SDS_P1;SDS_P2;PMS_P1;PMS_P2;Temp;Humidity;BMP_temperature;BMP_pressure;BME280_temperature;BME280_humidity;BME280_pressure;Samples;Min_cycle;Max_cycle;Signal;HPM_P1;HPM_P2
2024/01/17 11:25:17;;;;;;;3.95;2.80;;;;;;;;;;5580595;22;20161;-86
2024/01/17 11:28:12;;;;;;;5.57;2.45;;;;;;;;;;5065476;28;20417;-86
2024/01/17 11:31:13;;;;;;;3.53;2.63;;;;;;;;;;5052458;28;20049;-86
2024/01/17 11:34:03;;;;;;;4.60;2.70;;;;;;;;;;5060741;28;20049;-85
2024/01/17 12:06:13;;;;;;;4.82;3.50;;;;;;;;;;6214838;22;1988297;-83
2024/01/17 12:09:24;;;;;;;5.00;3.20;;;;;;;;;;6103742;23;20024;-85
2024/01/17 12:54:42;;;;;;;4.13;3.00;;;;;;;;;;6082699;23;20026;-83
2024/01/17 13:05:07;;;;;;;3.92;2.90;;;;;;;;;;6144811;23;20572;-84
2024/01/17 13:27:46;;;;;;;4.05;2.92;;;;;;;;;;6152460;23;20022;-88
2024/01/17 13:30:36;;;;;;;;;;;;;;;;;;6132093;23;20021;-87
2024/01/17 15:24:31;;;;;;;3.20;2.65;;;;;;;;;;6160416;22;1282030;-85
2024/01/17 15:27:17;;;;;;;4.72;3.13;;;;;;;;;;6192876;23;20021;-84
2024/01/17 15:30:04;;;;;;;3.88;3.20;;;;;;;;;;6193065;23;20021;-83
2024/01/17 15:32:51;;;;;;;5.32;3.10;;;;;;;;;;6194608;23;20021;-84
2024/01/17 15:35:37;;;;;;;3.55;3.13;;;;;;;;;;6192801;23;20020;-85
2024/01/17 15:38:23;;;;;;;4.53;3.33;;;;;;;;;;6193991;23;20017;-84
2024/01/17 15:41:10;;;;;;;3.95;3.20;;;;;;;;;;6192951;23;20017;-84
2024/01/17 15:43:56;;;;;;;4.95;3.38;;;;;;;;;;6193237;23;20013;-84
2024/01/17 15:46:43;;;;;;;4.70;3.53;;;;;;;;;;6195662;23;20020;-85
2024/01/17 15:49:33;;;;;;;4.82;3.63;;;;;;;;;;6192881;23;20017;-86
2024/01/17 15:52:19;;;;;;;5.22;3.35;;;;;;;;;;6148876;23;20470;-84
2024/01/17 15:55:06;;;;;;;4.60;3.50;;;;;;;;;;6171289;23;20017;-84
2024/01/17 15:57:53;;;;;;;4.32;3.92;;;;;;;;;;6140681;23;20388;-85
2024/01/17 16:00:40;;;;;;;3.97;2.85;;;;;;;;;;6120554;23;20025;-84
2024/01/17 16:03:26;;;;;;;4.95;3.47;;;;;;;;;;6141179;23;20025;-84
2024/01/17 16:06:12;;;;;;;4.35;3.35;;;;;;;;;;6141480;23;20018;-84
2024/01/17 16:08:58;;;;;;;4.75;3.10;;;;;;;;;;6142073;23;20627;-85
2024/01/17 16:11:44;;;;;;;4.50;3.42;;;;;;;;;;6163111;23;20552;-85
2024/01/17 16:14:32;;;;;;;6.47;3.60;;;;;;;;;;6156812;23;20020;-83
2024/01/17 16:17:18;;;;;;;3.90;3.33;;;;;;;;;;6224032;23;20024;-84
2024/01/17 16:20:04;;;;;;;4.88;2.85;;;;;;;;;;6201224;23;20029;-84
2024/01/17 16:22:50;;;;;;;5.38;3.28;;;;;;;;;;6222730;23;20017;-83
2024/01/17 16:25:37;;;;;;;5.78;3.38;;;;;;;;;;6217656;23;20020;-84
2024/01/17 16:28:23;;;;;;;5.72;3.38;;;;;;;;;;6201634;23;20448;-84
2024/01/17 16:31:11;;;;;;;5.35;3.97;;;;;;;;;;6201122;23;20013;-85
2024/01/17 16:33:57;;;;;;;4.15;3.33;;;;;;;;;;6223012;23;20453;-84
2024/01/17 16:36:43;;;;;;;4.75;3.28;;;;;;;;;;6201727;23;20449;-84
2024/01/17 16:39:28;;;;;;;4.70;3.60;;;;;;;;;;6201548;23;20020;-83
2024/01/17 16:42:14;;;;;;;3.78;3.10;;;;;;;;;;6223687;23;20021;-84
2024/01/17 16:45:00;;;;;;;4.20;3.47;;;;;;;;;;6223355;23;20017;-84
2024/01/17 16:47:50;;;;;;;4.57;3.65;;;;;;;;;;6201125;23;20465;-84
2024/01/17 16:50:38;;;;;;;4.88;3.53;;;;;;;;;;6223594;23;20017;-84
2024/01/17 16:53:24;;;;;;;5.30;3.70;;;;;;;;;;6179854;23;20021;-84
2024/01/17 16:56:13;;;;;;;6.28;3.90;;;;;;;;;;6219674;23;20016;-84
2024/01/17 16:58:59;;;;;;;4.18;3.38;;;;;;;;;;6179736;23;20016;-85
2024/01/17 17:01:47;;;;;;;5.00;3.63;;;;;;;;;;6201003;23;20020;-85
2024/01/17 17:04:38;;;;;;;4.70;4.07;;;;;;;;;;6180102;23;20020;-85
2024/01/17 17:07:24;;;;;;;5.50;3.95;;;;;;;;;;6179690;23;20020;-84
2024/01/17 17:10:10;;;;;;;4.28;3.60;;;;;;;;;;6179545;23;20334;-85
2024/01/17 17:12:56;;;;;;;4.57;3.80;;;;;;;;;;6200282;23;20024;-84
2024/01/17 17:15:42;;;;;;;4.20;3.35;;;;;;;;;;6215117;23;20016;-84
2024/01/17 17:18:28;;;;;;;5.57;3.30;;;;;;;;;;6179602;23;20021;-85
2024/01/17 17:21:18;;;;;;;6.55;4.40;;;;;;;;;;6223161;23;20017;-87
2024/01/17 17:24:04;;;;;;;5.85;3.95;;;;;;;;;;6178995;23;20020;-85
2024/01/17 17:26:50;;;;;;;5.30;4.03;;;;;;;;;;6179643;23;20016;-85
2024/01/17 17:29:36;;;;;;;5.28;3.67;;;;;;;;;;6200695;23;20040;-85
2024/01/17 17:32:27;;;;;;;5.95;3.95;;;;;;;;;;6222864;23;20457;-85
2024/01/17 17:35:16;;;;;;;4.10;3.67;;;;;;;;;;6179390;23;20021;-85
2024/01/17 17:38:09;;;;;;;5.28;3.80;;;;;;;;;;6215304;23;20075;-85
2024/01/17 17:40:55;;;;;;;5.95;4.35;;;;;;;;;;6216795;23;20020;-85
2024/01/17 17:43:41;;;;;;;6.30;4.82;;;;;;;;;;6174000;23;20021;-84
2024/01/17 17:46:27;;;;;;;4.28;3.58;;;;;;;;;;6193397;23;20016;-84
2024/01/17 17:49:16;;;;;;;6.03;4.45;;;;;;;;;;6178382;23;20020;-85
2024/01/17 17:52:02;;;;;;;4.75;3.75;;;;;;;;;;6179370;23;20024;-85
2024/01/17 17:54:56;;;;;;;5.80;4.00;;;;;;;;;;6177942;23;20012;-84
2024/01/17 17:57:44;;;;;;;6.70;4.25;;;;;;;;;;6200231;23;20020;-84
2024/01/17 18:00:30;;;;;;;6.07;4.10;;;;;;;;;;6178658;23;20017;-83
2024/01/17 18:03:17;;;;;;;5.03;4.13;;;;;;;;;;6225077;23;20025;-84
2024/01/17 18:06:03;;;;;;;5.75;4.63;;;;;;;;;;6180333;23;20012;-83
2024/01/17 18:08:49;;;;;;;5.50;4.07;;;;;;;;;;6178586;23;20020;-83
2024/01/17 18:11:36;;;;;;;7.05;4.80;;;;;;;;;;6199484;23;20020;-83
2024/01/17 18:14:25;;;;;;;5.43;4.47;;;;;;;;;;6178893;23;20340;-83
2024/01/17 18:17:12;;;;;;;6.18;4.50;;;;;;;;;;6198995;23;20016;-83
2024/01/17 18:19:58;;;;;;;5.70;4.53;;;;;;;;;;6179406;23;20020;-83
2024/01/17 18:22:47;;;;;;;4.97;4.05;;;;;;;;;;6223674;23;20025;-83
2024/01/17 18:25:33;;;;;;;6.18;4.53;;;;;;;;;;6222308;23;20016;-83
2024/01/17 18:28:23;;;;;;;6.15;4.47;;;;;;;;;;6223787;23;20469;-83
2024/01/17 18:31:08;;;;;;;5.88;4.90;;;;;;;;;;6180783;23;20017;-83
2024/01/17 18:33:54;;;;;;;5.22;4.72;;;;;;;;;;6201029;23;20020;-83
2024/01/17 18:36:40;;;;;;;5.53;4.70;;;;;;;;;;6201507;23;20449;-83
2024/01/17 18:39:29;;;;;;;6.15;4.60;;;;;;;;;;6201722;23;20020;-83
2024/01/17 18:42:15;;;;;;;5.55;4.70;;;;;;;;;;6179653;23;20020;-84
2024/01/17 18:45:02;;;;;;;5.55;4.65;;;;;;;;;;6200293;23;20327;-83
2024/01/17 18:47:48;;;;;;;6.55;4.68;;;;;;;;;;6200049;23;20016;-83
2024/01/17 18:50:37;;;;;;;5.75;4.82;;;;;;;;;;6224534;23;20028;-83
2024/01/17 18:53:23;;;;;;;6.32;4.47;;;;;;;;;;6180611;23;20016;-83
2024/01/17 18:56:11;;;;;;;6.38;4.82;;;;;;;;;;6219954;23;20444;-84
2024/01/17 18:58:58;;;;;;;6.30;5.00;;;;;;;;;;6201132;23;20028;-83
2024/01/17 19:01:48;;;;;;;5.78;4.88;;;;;;;;;;6178945;23;20468;-84
2024/01/17 19:04:38;;;;;;;7.07;4.80;;;;;;;;;;6201414;23;20029;-83
2024/01/17 19:07:26;;;;;;;5.90;4.93;;;;;;;;;;6181345;23;20024;-83
2024/01/17 19:10:15;;;;;;;5.63;4.53;;;;;;;;;;6202717;23;20016;-84
2024/01/17 19:13:01;;;;;;;6.80;4.50;;;;;;;;;;6180463;23;20020;-83
2024/01/17 19:15:50;;;;;;;6.30;4.85;;;;;;;;;;6192981;23;20016;-83
2024/01/17 19:18:39;;;;;;;6.07;4.88;;;;;;;;;;6180050;23;20016;-83
2024/01/17 19:21:25;;;;;;;5.75;4.78;;;;;;;;;;6180507;23;20020;-84
2024/01/17 19:24:14;;;;;;;6.57;5.32;;;;;;;;;;6180538;23;20020;-84
2024/01/17 19:27:00;;;;;;;6.60;5.07;;;;;;;;;;6194750;23;20016;-84
2024/01/17 19:29:48;;;;;;;6.55;5.20;;;;;;;;;;6180103;23;20020;-83
2024/01/17 19:32:34;;;;;;;5.43;4.50;;;;;;;;;;6201353;23;20020;-83
2024/01/17 19:35:23;;;;;;;6.78;5.38;;;;;;;;;;6223900;23;20020;-84
2024/01/17 19:38:09;;;;;;;6.70;5.15;;;;;;;;;;6180202;23;20024;-83
2024/01/17 19:40:55;;;;;;;6.72;4.85;;;;;;;;;;6180696;23;20016;-83
2024/01/17 19:43:40;;;;;;;5.15;4.57;;;;;;;;;;6201361;23;20016;-83
2024/01/17 19:46:26;;;;;;;6.38;5.30;;;;;;;;;;6218663;23;20021;-84
2024/01/17 19:49:12;;;;;;;6.80;5.68;;;;;;;;;;6180649;23;20021;-83
2024/01/17 19:52:02;;;;;;;8.45;5.53;;;;;;;;;;6223170;23;20017;-83
2024/01/17 19:54:49;;;;;;;7.18;5.53;;;;;;;;;;6201555;23;20021;-83
2024/01/17 19:57:39;;;;;;;6.43;4.93;;;;;;;;;;6201141;23;20016;-83
2024/01/17 20:00:32;;;;;;;6.38;4.80;;;;;;;;;;6201399;23;20020;-83
2024/01/17 20:03:18;;;;;;;6.97;5.20;;;;;;;;;;6180022;23;20448;-83
2024/01/17 20:06:06;;;;;;;6.28;5.28;;;;;;;;;;6180468;23;20016;-83
2024/01/17 20:08:59;;;;;;;6.30;5.47;;;;;;;;;;6201862;23;20020;-83
2024/01/17 20:11:45;;;;;;;5.75;4.93;;;;;;;;;;6223182;23;20024;-83
2024/01/17 20:14:30;;;;;;;7.85;5.35;;;;;;;;;;6201379;23;20016;-83
2024/01/17 20:17:16;;;;;;;7.05;5.38;;;;;;;;;;6201133;23;20593;-83
2024/01/17 20:20:05;;;;;;;6.15;4.82;;;;;;;;;;6201475;23;20020;-83
2024/01/17 20:22:51;;;;;;;6.07;5.30;;;;;;;;;;6178682;23;20016;-83
2024/01/17 20:25:38;;;;;;;6.30;5.15;;;;;;;;;;6199546;23;20025;-83
2024/01/17 20:28:24;;;;;;;6.15;4.63;;;;;;;;;;6179802;23;20021;-83
2024/01/17 20:31:11;;;;;;;6.60;5.10;;;;;;;;;;6223750;23;20020;-83
2024/01/17 20:33:57;;;;;;;6.78;5.20;;;;;;;;;;6179984;23;20024;-83
2024/01/17 20:36:47;;;;;;;8.15;5.20;;;;;;;;;;6180063;23;20021;-83
2024/01/17 20:39:39;;;;;;;7.35;5.28;;;;;;;;;;6180363;23;20016;-83
2024/01/17 20:42:27;;;;;;;6.35;5.25;;;;;;;;;;6200195;23;20025;-83
2024/01/17 20:45:17;;;;;;;7.28;5.30;;;;;;;;;;6223704;23;20020;-83
2024/01/17 20:48:06;;;;;;;7.03;5.43;;;;;;;;;;6223246;23;20016;-83
2024/01/17 20:50:52;;;;;;;6.40;5.22;;;;;;;;;;6201355;23;20024;-83
2024/01/17 20:53:38;;;;;;;6.57;5.25;;;;;;;;;;6179485;23;20020;-83
2024/01/17 20:56:23;;;;;;;6.68;5.47;;;;;;;;;;6179648;23;20016;-83
2024/01/17 20:59:12;;;;;;;7.90;5.35;;;;;;;;;;6179957;23;20017;-83
2024/01/17 21:02:00;;;;;;;5.82;5.20;;;;;;;;;;6223229;23;20020;-83
2024/01/17 21:04:49;;;;;;;7.53;5.60;;;;;;;;;;6223711;23;20020;-83
2024/01/17 21:07:34;;;;;;;7.63;5.80;;;;;;;;;;6213650;23;20016;-83
2024/01/17 21:10:20;;;;;;;6.70;5.45;;;;;;;;;;6179422;23;20020;-83
2024/01/17 21:13:06;;;;;;;6.95;5.95;;;;;;;;;;6198133;23;20021;-84
2024/01/17 21:15:56;;;;;;;7.10;5.70;;;;;;;;;;6181930;23;20016;-83
2024/01/17 21:18:43;;;;;;;7.35;5.47;;;;;;;;;;6181002;23;20016;-83
2024/01/17 21:21:32;;;;;;;6.15;5.05;;;;;;;;;;6202552;23;20028;-83
2024/01/17 21:24:18;;;;;;;6.45;5.40;;;;;;;;;;6201936;23;20012;-84
2024/01/17 21:27:05;;;;;;;7.75;5.80;;;;;;;;;;6180588;23;20330;-86
2024/01/17 21:29:56;;;;;;;6.88;4.80;;;;;;;;;;6182700;23;20017;-86
2024/01/17 21:32:44;;;;;;;7.28;5.25;;;;;;;;;;6180299;23;20016;-85
2024/01/17 21:35:30;;;;;;;6.65;5.05;;;;;;;;;;6181344;23;20021;-86
2024/01/17 21:38:18;;;;;;;6.40;5.28;;;;;;;;;;6181620;23;20013;-86
2024/01/17 21:41:06;;;;;;;5.75;5.15;;;;;;;;;;6181317;23;20020;-86
2024/01/17 21:43:52;;;;;;;6.85;4.82;;;;;;;;;;6224249;23;20020;-85
2024/01/17 21:46:40;;;;;;;6.35;5.57;;;;;;;;;;6180816;23;20017;-86
2024/01/17 21:49:30;;;;;;;7.00;5.43;;;;;;;;;;6202295;23;20016;-85
2024/01/17 21:52:16;;;;;;;6.07;5.43;;;;;;;;;;6180986;23;20021;-86
2024/01/17 21:55:05;;;;;;;7.45;4.90;;;;;;;;;;6202223;23;20021;-85
2024/01/17 21:57:51;;;;;;;7.50;5.43;;;;;;;;;;6182858;23;20460;-86
2024/01/17 22:00:37;;;;;;;6.47;5.45;;;;;;;;;;6204075;23;20021;-85
2024/01/17 22:03:25;;;;;;;5.90;4.90;;;;;;;;;;6182969;23;20445;-86
2024/01/17 22:06:13;;;;;;;6.43;5.35;;;;;;;;;;6179472;23;20024;-86
2024/01/17 22:09:00;;;;;;;5.82;5.03;;;;;;;;;;6182832;23;20323;-86
2024/01/17 22:11:49;;;;;;;6.60;5.43;;;;;;;;;;6183053;23;20016;-86
2024/01/17 22:14:35;;;;;;;5.50;4.80;;;;;;;;;;6182846;23;20020;-86
2024/01/17 22:17:21;;;;;;;5.90;4.80;;;;;;;;;;6161990;23;20017;-86
2024/01/17 22:20:10;;;;;;;6.07;5.25;;;;;;;;;;6162145;23;20485;-86
2024/01/17 22:23:00;;;;;;;6.05;4.72;;;;;;;;;;6182404;23;20021;-85
2024/01/17 22:25:46;;;;;;;6.07;4.80;;;;;;;;;;6182488;23;20020;-85
2024/01/17 22:28:32;;;;;;;5.93;4.80;;;;;;;;;;6203453;23;20016;-85
2024/01/17 22:31:20;;;;;;;6.32;5.07;;;;;;;;;;6203846;23;20020;-86
2024/01/17 22:34:05;;;;;;;6.70;4.70;;;;;;;;;;6182576;23;20020;-86
2024/01/17 22:36:51;;;;;;;5.30;4.80;;;;;;;;;;6182205;23;20020;-86
2024/01/17 22:39:39;;;;;;;5.90;4.78;;;;;;;;;;6203674;23;20024;-85
2024/01/17 22:42:25;;;;;;;5.75;5.18;;;;;;;;;;6182500;23;20016;-86
2024/01/17 22:45:10;;;;;;;5.70;4.68;;;;;;;;;;6226420;23;20333;-86
2024/01/17 22:47:57;;;;;;;6.53;4.55;;;;;;;;;;6182509;23;20330;-86
2024/01/17 22:50:43;;;;;;;5.68;4.82;;;;;;;;;;6203838;23;20017;-86
2024/01/17 22:53:29;;;;;;;5.45;4.53;;;;;;;;;;6182365;23;20020;-86
2024/01/17 22:56:16;;;;;;;5.57;4.75;;;;;;;;;;6182204;23;20021;-86
2024/01/17 22:59:02;;;;;;;5.22;4.50;;;;;;;;;;6161435;23;20016;-85
2024/01/17 23:01:48;;;;;;;6.65;5.00;;;;;;;;;;6182408;23;20021;-85
2024/01/17 23:04:34;;;;;;;5.20;4.45;;;;;;;;;;6161674;23;20021;-85
2024/01/17 23:07:22;;;;;;;5.88;4.85;;;;;;;;;;6182320;23;20013;-85
2024/01/17 23:10:11;;;;;;;5.47;4.28;;;;;;;;;;6203638;23;20013;-85
2024/01/17 23:12:58;;;;;;;5.63;4.53;;;;;;;;;;6181920;23;20020;-85
2024/01/17 23:15:44;;;;;;;5.53;4.63;;;;;;;;;;6182866;23;20017;-85
2024/01/17 23:18:33;;;;;;;5.43;4.63;;;;;;;;;;6203436;23;20017;-85
2024/01/17 23:21:19;;;;;;;7.35;5.13;;;;;;;;;;6182465;23;20021;-85
2024/01/17 23:24:05;;;;;;;4.75;4.25;;;;;;;;;;6202962;23;20021;-85
2024/01/17 23:26:51;;;;;;;5.28;4.20;;;;;;;;;;6182333;23;20021;-86
2024/01/17 23:29:39;;;;;;;5.00;4.03;;;;;;;;;;6182187;23;20042;-85
2024/01/17 23:32:24;;;;;;;5.18;4.25;;;;;;;;;;6202730;23;20326;-85
2024/01/17 23:35:13;;;;;;;4.85;4.00;;;;;;;;;;6225706;23;20021;-86
2024/01/17 23:37:59;;;;;;;5.15;4.47;;;;;;;;;;6182193;23;20016;-86
2024/01/17 23:40:48;;;;;;;5.35;4.18;;;;;;;;;;6182210;23;20020;-86
2024/01/17 23:43:34;;;;;;;4.97;4.47;;;;;;;;;;6202941;23;20020;-85
2024/01/17 23:46:21;;;;;;;5.18;4.07;;;;;;;;;;6182207;23;20013;-85
2024/01/17 23:49:08;;;;;;;5.68;4.15;;;;;;;;;;6182371;23;20017;-85
2024/01/17 23:51:56;;;;;;;5.78;4.10;;;;;;;;;;6203448;23;20021;-85
2024/01/17 23:54:43;;;;;;;5.00;4.38;;;;;;;;;;6181886;23;20024;-85
2024/01/17 23:57:29;;;;;;;4.90;4.32;;;;;;;;;;6181745;23;20017;-85
